createdAt,value
2018-03-16T00:00:23.185Z,27.67
2018-03-16T00:00:51.142Z,27.63
2018-03-16T00:01:19.200Z,27.75
2018-03-16T00:01:47.328Z,27.7
2018-03-16T00:02:15.434Z,27.69
2018-03-16T00:02:43.573Z,27.65
2018-03-16T00:03:11.745Z,27.62
2018-03-16T00:03:39.913Z,27.65
2018-03-16T00:04:08.044Z,27.54
2018-03-16T00:04:36.213Z,27.62
2018-03-16T00:05:04.295Z,27.63
2018-03-16T00:05:32.446Z,27.6
2018-03-16T00:06:00.474Z,27.54
2018-03-16T00:07:06.300Z,27.41
2018-03-16T00:07:34.496Z,27.39
2018-03-16T00:08:02.623Z,27.5
2018-03-16T00:08:30.783Z,27.44
2018-03-16T00:08:58.843Z,27.41
2018-03-16T00:09:26.851Z,27.43
2018-03-16T00:09:55.050Z,27.43
2018-03-16T00:10:23.145Z,27.32
2018-03-16T00:10:51.305Z,27.34
2018-03-16T00:11:19.669Z,27.32
2018-03-16T00:11:47.800Z,27.28
2018-03-16T00:12:15.977Z,27.19
2018-03-16T00:12:44.009Z,27.21
2018-03-16T00:13:12.154Z,27.12
2018-03-16T00:13:40.264Z,27.17
2018-03-16T00:14:08.433Z,27.19
2018-03-16T00:14:36.593Z,27.18
2018-03-16T00:15:04.746Z,27.1
2018-03-16T00:15:32.870Z,27.14
2018-03-16T00:16:00.967Z,27.13
2018-03-16T00:16:29.097Z,27.1
2018-03-16T00:16:57.086Z,27.06
2018-03-16T00:17:25.253Z,27.07
2018-03-16T00:17:53.300Z,27.06
2018-03-16T00:18:21.498Z,26.92
2018-03-16T00:18:49.679Z,26.94
2018-03-16T00:19:17.714Z,26.94
2018-03-16T00:19:45.870Z,26.97
2018-03-16T00:20:14.025Z,27.02
2018-03-16T00:20:42.093Z,26.95
2018-03-16T00:21:10.212Z,26.94
2018-03-16T00:21:38.355Z,26.92
2018-03-16T00:22:06.451Z,26.95
2018-03-16T00:22:34.572Z,26.99
2018-03-16T00:23:02.754Z,26.97
2018-03-16T00:23:30.836Z,27.04
2018-03-16T00:23:58.974Z,26.95
2018-03-16T00:24:27.183Z,26.95
2018-03-16T00:24:55.334Z,26.95
2018-03-16T00:25:23.487Z,27
2018-03-16T00:25:51.636Z,27.07
2018-03-16T00:26:19.773Z,26.94
2018-03-16T00:26:48.082Z,27.07
2018-03-16T00:27:16.219Z,26.99
2018-03-16T00:27:44.411Z,26.99
2018-03-16T00:28:12.603Z,27.06
2018-03-16T00:28:40.730Z,27.07
2018-03-16T00:29:08.957Z,26.99
2018-03-16T00:29:37.138Z,27.03
2018-03-16T00:30:05.292Z,27.13
2018-03-16T00:30:33.429Z,27
2018-03-16T00:31:01.587Z,27.06
2018-03-16T00:31:29.714Z,26.99
2018-03-16T00:31:57.837Z,26.99
2018-03-16T00:32:25.992Z,27.07
2018-03-16T00:32:54.134Z,26.97
2018-03-16T00:33:22.288Z,27.04
2018-03-16T00:33:50.373Z,26.94
2018-03-16T00:34:18.546Z,26.89
2018-03-16T00:34:46.620Z,26.95
2018-03-16T00:35:14.769Z,26.99
2018-03-16T00:35:42.874Z,26.94
2018-03-16T00:36:11.015Z,26.94
2018-03-16T00:36:39.182Z,26.97
2018-03-16T00:37:07.309Z,26.91
2018-03-16T00:37:35.436Z,26.85
2018-03-16T00:38:03.469Z,26.87
2018-03-16T00:38:31.647Z,26.84
2018-03-16T00:38:59.791Z,26.95
2018-03-16T00:39:27.930Z,26.88
2018-03-16T00:39:56.076Z,26.84
2018-03-16T00:40:24.158Z,26.84
2018-03-16T00:40:52.262Z,26.84
2018-03-16T00:41:20.251Z,26.77
2018-03-16T00:41:48.543Z,26.77
2018-03-16T00:42:16.713Z,26.75
2018-03-16T00:42:44.886Z,26.73
2018-03-16T00:43:12.925Z,26.8
2018-03-16T00:43:41.092Z,26.8
2018-03-16T00:44:09.243Z,26.77
2018-03-16T00:44:37.383Z,26.73
2018-03-16T00:45:05.533Z,26.75
2018-03-16T00:46:11.359Z,26.81
2018-03-16T00:46:39.547Z,26.87
2018-03-16T00:47:07.656Z,26.84
2018-03-16T00:47:35.721Z,26.85
2018-03-16T00:48:03.868Z,26.84
2018-03-16T00:48:31.879Z,26.88
2018-03-16T00:49:00.077Z,26.89
2018-03-16T00:49:28.164Z,26.88
2018-03-16T00:49:56.307Z,26.89
2018-03-16T00:50:24.449Z,26.95
2018-03-16T00:50:52.586Z,27.03
2018-03-16T00:51:20.659Z,26.95
2018-03-16T00:51:48.589Z,27.03
2018-03-16T00:52:16.736Z,27
2018-03-16T00:52:44.846Z,27.06
2018-03-16T00:53:13.033Z,27
2018-03-16T00:53:41.197Z,26.94
2018-03-16T00:54:09.347Z,27.02
2018-03-16T00:54:37.484Z,27.04
2018-03-16T00:55:05.471Z,27
2018-03-16T00:55:33.517Z,26.99
2018-03-16T00:56:01.696Z,27
2018-03-16T00:56:29.641Z,27.04
2018-03-16T00:56:57.841Z,26.97
2018-03-16T00:57:26.013Z,26.92
2018-03-16T00:57:54.097Z,26.95
2018-03-16T00:58:22.235Z,26.94
2018-03-16T00:58:50.389Z,26.88
2018-03-16T00:59:18.449Z,26.91
2018-03-16T00:59:46.616Z,26.95
2018-03-16T01:00:14.736Z,26.95
2018-03-16T01:00:42.884Z,26.92
2018-03-16T01:01:10.965Z,26.95
2018-03-16T01:01:39.104Z,26.92
2018-03-16T01:02:07.298Z,26.99
2018-03-16T01:02:35.455Z,26.91
2018-03-16T01:03:03.497Z,26.97
2018-03-16T01:03:31.613Z,26.95
2018-03-16T01:03:59.775Z,27
2018-03-16T01:04:27.930Z,26.94
2018-03-16T01:04:56.050Z,26.95
2018-03-16T01:05:24.200Z,26.89
2018-03-16T01:05:52.335Z,26.89
2018-03-16T01:06:20.478Z,26.81
2018-03-16T01:06:48.707Z,26.91
2018-03-16T01:07:16.895Z,26.89
2018-03-16T01:07:45.019Z,26.85
2018-03-16T01:08:13.030Z,26.88
2018-03-16T01:08:41.088Z,26.8
2018-03-16T01:09:09.274Z,26.73
2018-03-16T01:09:37.406Z,26.75
2018-03-16T01:10:05.441Z,26.73
2018-03-16T01:10:33.468Z,26.82
2018-03-16T01:11:01.593Z,26.8
2018-03-16T01:11:29.648Z,26.84
2018-03-16T01:11:57.890Z,26.8
2018-03-16T01:12:25.943Z,26.87
2018-03-16T01:12:53.941Z,26.84
2018-03-16T01:13:22.119Z,26.82
2018-03-16T01:13:50.291Z,26.85
2018-03-16T01:14:18.341Z,26.84
2018-03-16T01:14:46.376Z,26.85
2018-03-16T01:15:14.510Z,26.82
2018-03-16T01:15:42.678Z,26.81
2018-03-16T01:16:10.731Z,26.73
2018-03-16T01:16:38.850Z,26.76
2018-03-16T01:17:06.985Z,26.76
2018-03-16T01:17:35.162Z,26.75
2018-03-16T01:18:03.315Z,26.8
2018-03-16T01:18:31.459Z,26.73
2018-03-16T01:18:59.614Z,26.7
2018-03-16T01:19:27.687Z,26.66
2018-03-16T01:19:55.796Z,26.66
2018-03-16T01:20:23.878Z,26.65
2018-03-16T01:20:52.026Z,26.75
2018-03-16T01:21:20.094Z,26.67
2018-03-16T01:21:48.277Z,26.73
2018-03-16T01:22:16.426Z,26.65
2018-03-16T01:22:44.593Z,26.67
2018-03-16T01:23:12.752Z,26.72
2018-03-16T01:23:40.899Z,26.67
2018-03-16T01:24:09.032Z,26.69
2018-03-16T01:25:14.856Z,26.72
2018-03-16T01:25:42.947Z,26.7
2018-03-16T01:26:11.074Z,26.65
2018-03-16T01:26:39.239Z,26.58
2018-03-16T01:27:07.646Z,26.62
2018-03-16T01:27:35.772Z,26.58
2018-03-16T01:28:03.971Z,26.55
2018-03-16T01:28:32.082Z,26.67
2018-03-16T01:29:00.240Z,26.67
2018-03-16T01:29:28.458Z,26.65
2018-03-16T01:29:56.600Z,26.62
2018-03-16T01:30:24.677Z,26.63
2018-03-16T01:30:52.809Z,26.66
2018-03-16T01:31:20.953Z,26.7
2018-03-16T01:31:49.126Z,26.69
2018-03-16T01:32:17.377Z,26.72
2018-03-16T01:32:45.539Z,26.77
2018-03-16T01:33:13.688Z,26.76
2018-03-16T01:33:41.813Z,26.75
2018-03-16T01:34:09.896Z,26.8
2018-03-16T01:34:38.030Z,26.72
2018-03-16T01:35:06.210Z,26.72
2018-03-16T01:35:34.345Z,26.65
2018-03-16T01:36:02.482Z,26.69
2018-03-16T01:36:30.557Z,26.72
2018-03-16T01:36:58.783Z,26.76
2018-03-16T01:37:27.111Z,26.62
2018-03-16T01:37:55.266Z,26.6
2018-03-16T01:38:23.434Z,26.66
2018-03-16T01:38:51.599Z,26.65
2018-03-16T01:39:19.730Z,26.62
2018-03-16T01:39:47.788Z,26.66
2018-03-16T01:40:15.979Z,26.66
2018-03-16T01:40:44.096Z,26.7
2018-03-16T01:41:12.257Z,26.65
2018-03-16T01:41:40.430Z,26.69
2018-03-16T01:42:08.568Z,26.69
2018-03-16T01:42:36.973Z,26.62
2018-03-16T01:43:05.122Z,26.62
2018-03-16T01:43:33.280Z,26.55
2018-03-16T01:44:01.407Z,26.66
2018-03-16T01:44:29.533Z,26.58
2018-03-16T01:44:57.672Z,26.54
2018-03-16T01:45:25.721Z,26.54
2018-03-16T01:45:53.927Z,26.57
2018-03-16T01:46:22.006Z,26.54
2018-03-16T01:46:50.115Z,26.6
2018-03-16T01:47:18.233Z,26.62
2018-03-16T01:47:46.383Z,26.6
2018-03-16T01:48:14.559Z,26.57
2018-03-16T01:48:42.600Z,26.65
2018-03-16T01:49:10.750Z,26.58
2018-03-16T01:49:38.778Z,26.57
2018-03-16T01:50:06.929Z,26.48
2018-03-16T01:50:35.084Z,26.51
2018-03-16T01:51:03.216Z,26.58
2018-03-16T01:51:31.375Z,26.5
2018-03-16T01:51:59.465Z,26.54
2018-03-16T01:52:27.640Z,26.5
2018-03-16T01:52:55.704Z,26.52
2018-03-16T01:53:23.744Z,26.43
2018-03-16T01:53:51.866Z,26.48
2018-03-16T01:54:20.013Z,26.43
2018-03-16T01:54:48.174Z,26.36
2018-03-16T01:55:16.302Z,26.33
2018-03-16T01:55:44.456Z,26.39
2018-03-16T01:56:12.554Z,26.43
2018-03-16T01:56:40.637Z,26.37
2018-03-16T01:57:08.782Z,26.33
2018-03-16T01:57:37.073Z,26.36
2018-03-16T01:58:05.216Z,26.36
2018-03-16T01:58:33.380Z,26.37
2018-03-16T01:59:01.488Z,26.43
2018-03-16T01:59:29.573Z,26.37
2018-03-16T01:59:57.723Z,26.39
2018-03-16T02:00:25.888Z,26.48
2018-03-16T02:00:54.056Z,26.45
2018-03-16T02:01:22.086Z,26.48
2018-03-16T02:01:50.183Z,26.44
2018-03-16T02:02:18.248Z,26.45
2018-03-16T02:02:46.398Z,26.45
2018-03-16T02:03:14.530Z,26.48
2018-03-16T02:04:20.347Z,26.5
2018-03-16T02:04:48.538Z,26.5
2018-03-16T02:05:16.642Z,26.5
2018-03-16T02:05:44.806Z,26.5
2018-03-16T02:06:12.758Z,26.36
2018-03-16T02:06:40.861Z,26.39
2018-03-16T02:07:08.957Z,26.47
2018-03-16T02:07:37.053Z,26.39
2018-03-16T02:08:05.106Z,26.36
2018-03-16T02:08:33.222Z,26.45
2018-03-16T02:09:01.350Z,26.33
2018-03-16T02:09:29.524Z,26.37
2018-03-16T02:09:57.654Z,26.33
2018-03-16T02:10:25.796Z,26.36
2018-03-16T02:10:53.910Z,26.35
2018-03-16T02:11:21.996Z,26.37
2018-03-16T02:11:50.163Z,26.39
2018-03-16T02:12:18.304Z,26.37
2018-03-16T02:12:46.742Z,26.36
2018-03-16T02:13:14.843Z,26.33
2018-03-16T02:13:42.976Z,26.33
2018-03-16T02:14:11.158Z,26.43
2018-03-16T02:14:39.204Z,26.4
2018-03-16T02:15:07.242Z,26.44
2018-03-16T02:15:35.402Z,26.43
2018-03-16T02:16:03.589Z,26.37
2018-03-16T02:16:31.722Z,26.36
2018-03-16T02:16:59.779Z,26.39
2018-03-16T02:17:27.928Z,26.43
2018-03-16T02:17:56.103Z,26.35
2018-03-16T02:18:24.218Z,26.35
2018-03-16T02:18:52.358Z,26.36
2018-03-16T02:19:20.552Z,26.33
2018-03-16T02:19:48.675Z,26.39
2018-03-16T02:20:16.834Z,26.36
2018-03-16T02:20:45.001Z,26.37
2018-03-16T02:21:13.164Z,26.45
2018-03-16T02:21:41.383Z,26.4
2018-03-16T02:22:09.520Z,26.37
2018-03-16T02:22:37.677Z,26.32
2018-03-16T02:23:05.600Z,26.35
2018-03-16T02:23:33.732Z,26.33
2018-03-16T02:24:01.788Z,26.32
2018-03-16T02:24:29.927Z,26.28
2018-03-16T02:24:58.123Z,26.29
2018-03-16T02:25:26.291Z,26.28
2018-03-16T02:25:54.400Z,26.17
2018-03-16T02:26:22.507Z,26.26
2018-03-16T02:26:50.655Z,26.21
2018-03-16T02:27:18.827Z,26.1
2018-03-16T02:27:46.871Z,26.17
2018-03-16T02:28:15.168Z,26.13
2018-03-16T02:28:43.282Z,26.06
2018-03-16T02:29:11.404Z,25.98
2018-03-16T02:29:39.453Z,25.99
2018-03-16T02:30:07.587Z,26.02
2018-03-16T02:30:35.730Z,26.02
2018-03-16T02:31:03.822Z,25.95
2018-03-16T02:31:31.993Z,25.99
2018-03-16T02:32:00.165Z,25.88
2018-03-16T02:32:28.310Z,25.88
2018-03-16T02:32:56.431Z,25.87
2018-03-16T02:33:24.560Z,25.9
2018-03-16T02:33:52.731Z,25.92
2018-03-16T02:34:20.873Z,25.9
2018-03-16T02:34:48.988Z,25.91
2018-03-16T02:35:17.021Z,25.91
2018-03-16T02:35:45.202Z,25.91
2018-03-16T02:36:13.362Z,25.79
2018-03-16T02:36:41.502Z,25.8
2018-03-16T02:37:09.637Z,25.85
2018-03-16T02:37:37.805Z,25.76
2018-03-16T02:38:05.919Z,25.83
2018-03-16T02:38:34.008Z,25.75
2018-03-16T02:39:02.162Z,25.87
2018-03-16T02:39:30.342Z,25.87
2018-03-16T02:39:58.526Z,25.77
2018-03-16T02:40:26.665Z,25.8
2018-03-16T02:40:54.825Z,25.87
2018-03-16T02:41:22.792Z,25.8
2018-03-16T02:41:50.933Z,25.88
2018-03-16T02:42:19.057Z,25.88
2018-03-16T02:43:24.883Z,25.82
2018-03-16T02:43:53.079Z,25.77
2018-03-16T02:44:21.191Z,25.8
2018-03-16T02:44:49.347Z,25.8
2018-03-16T02:45:17.493Z,25.79
2018-03-16T02:45:45.597Z,25.72
2018-03-16T02:46:13.798Z,25.76
2018-03-16T02:46:41.886Z,25.75
2018-03-16T02:47:10.034Z,25.69
2018-03-16T02:47:38.251Z,25.83
2018-03-16T02:48:06.400Z,25.76
2018-03-16T02:48:34.578Z,25.7
2018-03-16T02:49:02.704Z,25.72
2018-03-16T02:49:30.847Z,25.76
2018-03-16T02:49:58.864Z,25.76
2018-03-16T02:50:27.036Z,25.9
2018-03-16T02:50:55.190Z,25.91
2018-03-16T02:51:23.240Z,25.79
2018-03-16T02:51:51.360Z,25.76
2018-03-16T02:52:19.469Z,25.82
2018-03-16T02:52:47.624Z,25.85
2018-03-16T02:53:15.799Z,25.88
2018-03-16T02:53:43.957Z,25.9
2018-03-16T02:54:12.107Z,25.79
2018-03-16T02:54:40.264Z,25.87
2018-03-16T02:55:08.466Z,25.85
2018-03-16T02:55:36.601Z,25.88
2018-03-16T02:56:04.772Z,25.77
2018-03-16T02:56:32.827Z,25.75
2018-03-16T02:57:00.990Z,25.76
2018-03-16T02:57:28.915Z,25.7
2018-03-16T02:57:57.064Z,25.7
2018-03-16T02:58:25.242Z,25.69
2018-03-16T02:58:53.466Z,25.69
2018-03-16T02:59:21.623Z,25.7
2018-03-16T02:59:49.778Z,25.69
2018-03-16T03:00:17.827Z,25.61
2018-03-16T03:00:46.026Z,25.69
2018-03-16T03:01:14.179Z,25.65
2018-03-16T03:01:42.327Z,25.64
2018-03-16T03:02:10.442Z,25.62
2018-03-16T03:02:38.587Z,25.57
2018-03-16T03:03:06.726Z,25.7
2018-03-16T03:03:34.873Z,25.67
2018-03-16T03:04:03.082Z,25.69
2018-03-16T03:04:31.253Z,25.67
2018-03-16T03:04:59.375Z,25.67
2018-03-16T03:05:27.571Z,25.69
2018-03-16T03:05:55.708Z,25.65
2018-03-16T03:06:23.884Z,25.64
2018-03-16T03:06:52.060Z,25.7
2018-03-16T03:07:20.178Z,25.64
2018-03-16T03:07:48.298Z,25.75
2018-03-16T03:08:16.423Z,25.8
2018-03-16T03:08:44.587Z,25.77
2018-03-16T03:09:12.724Z,25.76
2018-03-16T03:09:40.886Z,25.75
2018-03-16T03:10:08.874Z,25.77
2018-03-16T03:10:37.035Z,25.91
2018-03-16T03:11:05.014Z,25.83
2018-03-16T03:11:33.158Z,25.76
2018-03-16T03:12:01.277Z,25.85
2018-03-16T03:12:29.410Z,25.9
2018-03-16T03:12:57.580Z,25.85
2018-03-16T03:13:25.726Z,25.87
2018-03-16T03:13:53.930Z,25.76
2018-03-16T03:14:22.044Z,25.9
2018-03-16T03:14:50.239Z,25.9
2018-03-16T03:15:18.410Z,25.91
2018-03-16T03:15:46.556Z,25.88
2018-03-16T03:16:14.698Z,25.91
2018-03-16T03:16:42.882Z,25.77
2018-03-16T03:17:10.981Z,25.9
2018-03-16T03:17:39.073Z,25.92
2018-03-16T03:18:07.216Z,25.87
2018-03-16T03:18:35.392Z,25.85
2018-03-16T03:19:03.563Z,25.88
2018-03-16T03:19:31.715Z,25.92
2018-03-16T03:19:59.874Z,25.88
2018-03-16T03:20:28.032Z,25.91
2018-03-16T03:20:56.183Z,25.87
2018-03-16T03:21:24.307Z,25.87
2018-03-16T03:22:30.122Z,25.88
2018-03-16T03:22:58.323Z,25.76
2018-03-16T03:23:26.436Z,25.88
2018-03-16T03:23:54.594Z,25.91
2018-03-16T03:24:22.740Z,25.88
2018-03-16T03:24:50.751Z,25.88
2018-03-16T03:25:18.954Z,25.95
2018-03-16T03:25:47.039Z,25.85
2018-03-16T03:26:15.195Z,25.94
2018-03-16T03:26:43.408Z,25.88
2018-03-16T03:27:11.542Z,25.88
2018-03-16T03:27:39.718Z,25.95
2018-03-16T03:28:07.845Z,26.01
2018-03-16T03:28:35.986Z,25.87
2018-03-16T03:29:04.939Z,25.91
2018-03-16T03:29:33.114Z,25.97
2018-03-16T03:30:01.298Z,26.02
2018-03-16T03:30:29.443Z,25.98
2018-03-16T03:30:57.568Z,26.02
2018-03-16T03:31:25.667Z,25.99
2018-03-16T03:31:53.807Z,25.99
2018-03-16T03:32:21.979Z,25.92
2018-03-16T03:32:50.119Z,26.01
2018-03-16T03:33:18.264Z,26.02
2018-03-16T03:33:46.432Z,26.01
2018-03-16T03:34:14.672Z,26.07
2018-03-16T03:34:42.741Z,26.02
2018-03-16T03:35:10.902Z,26.05
2018-03-16T03:35:39.076Z,26.05
2018-03-16T03:36:07.258Z,26.09
2018-03-16T03:36:35.376Z,26.09
2018-03-16T03:37:03.513Z,26.02
2018-03-16T03:37:31.694Z,26.05
2018-03-16T03:37:59.826Z,26.01
2018-03-16T03:38:27.979Z,25.99
2018-03-16T03:38:56.138Z,26.02
2018-03-16T03:39:24.269Z,25.99
2018-03-16T03:39:52.472Z,25.92
2018-03-16T03:40:20.619Z,25.91
2018-03-16T03:40:48.774Z,25.97
2018-03-16T03:41:16.890Z,25.92
2018-03-16T03:41:45.021Z,25.95
2018-03-16T03:42:13.157Z,25.9
2018-03-16T03:42:41.298Z,25.88
2018-03-16T03:43:09.491Z,25.91
2018-03-16T03:43:37.653Z,25.92
2018-03-16T03:44:05.776Z,25.97
2018-03-16T03:44:34.074Z,25.88
2018-03-16T03:45:02.219Z,25.85
2018-03-16T03:45:30.398Z,25.85
2018-03-16T03:45:58.528Z,25.94
2018-03-16T03:46:26.682Z,25.88
2018-03-16T03:46:54.793Z,25.9
2018-03-16T03:47:22.836Z,25.98
2018-03-16T03:47:50.890Z,25.95
2018-03-16T03:48:19.028Z,25.95
2018-03-16T03:48:47.192Z,25.99
2018-03-16T03:49:15.384Z,26.01
2018-03-16T03:49:43.546Z,25.9
2018-03-16T03:50:11.717Z,25.94
2018-03-16T03:50:39.868Z,25.99
2018-03-16T03:51:08.007Z,25.97
2018-03-16T03:51:36.142Z,25.97
2018-03-16T03:52:04.317Z,25.94
2018-03-16T03:52:32.445Z,25.97
2018-03-16T03:53:00.553Z,25.9
2018-03-16T03:53:28.691Z,25.9
2018-03-16T03:53:56.874Z,25.95
2018-03-16T03:54:25.032Z,25.88
2018-03-16T03:54:53.158Z,25.88
2018-03-16T03:55:21.290Z,25.92
2018-03-16T03:55:49.449Z,25.87
2018-03-16T03:56:17.554Z,25.91
2018-03-16T03:56:45.550Z,25.9
2018-03-16T03:57:13.715Z,25.9
2018-03-16T03:57:41.761Z,25.87
2018-03-16T03:58:09.835Z,25.85
2018-03-16T03:58:38.007Z,25.85
2018-03-16T03:59:06.154Z,25.87
2018-03-16T03:59:34.423Z,25.91
2018-03-16T04:00:02.574Z,25.85
2018-03-16T04:00:30.698Z,25.9
2018-03-16T04:01:36.533Z,25.76
2018-03-16T04:02:04.738Z,25.8
2018-03-16T04:02:32.844Z,25.77
2018-03-16T04:03:00.920Z,25.77
2018-03-16T04:03:29.067Z,25.82
2018-03-16T04:03:57.170Z,25.79
2018-03-16T04:04:25.366Z,25.79
2018-03-16T04:04:53.453Z,25.76
2018-03-16T04:05:21.606Z,25.76
2018-03-16T04:05:49.723Z,25.73
2018-03-16T04:06:17.757Z,25.75
2018-03-16T04:06:45.826Z,25.75
2018-03-16T04:07:13.862Z,25.73
2018-03-16T04:07:42.002Z,25.8
2018-03-16T04:08:10.127Z,25.72
2018-03-16T04:08:38.287Z,25.73
2018-03-16T04:09:06.463Z,25.8
2018-03-16T04:09:34.609Z,25.75
2018-03-16T04:10:02.752Z,25.72
2018-03-16T04:10:30.848Z,25.75
2018-03-16T04:10:58.984Z,25.75
2018-03-16T04:11:27.165Z,25.69
2018-03-16T04:11:55.299Z,25.69
2018-03-16T04:12:23.438Z,25.72
2018-03-16T04:12:51.611Z,25.72
2018-03-16T04:13:19.691Z,25.72
2018-03-16T04:13:47.827Z,25.76
2018-03-16T04:14:15.990Z,25.67
2018-03-16T04:14:44.261Z,25.69
2018-03-16T04:15:12.331Z,25.67
2018-03-16T04:15:40.442Z,25.7
2018-03-16T04:16:08.582Z,25.65
2018-03-16T04:16:36.763Z,25.67
2018-03-16T04:17:04.898Z,25.69
2018-03-16T04:17:33.061Z,25.69
2018-03-16T04:18:01.211Z,25.73
2018-03-16T04:18:29.350Z,25.67
2018-03-16T04:18:57.546Z,25.65
2018-03-16T04:19:25.584Z,25.67
2018-03-16T04:19:53.840Z,25.67
2018-03-16T04:20:21.793Z,25.62
2018-03-16T04:20:49.822Z,25.69
2018-03-16T04:21:17.864Z,25.73
2018-03-16T04:21:46.009Z,25.73
2018-03-16T04:22:14.199Z,25.65
2018-03-16T04:22:42.363Z,25.61
2018-03-16T04:23:10.473Z,25.6
2018-03-16T04:23:38.659Z,25.64
2018-03-16T04:24:06.801Z,25.65
2018-03-16T04:24:34.966Z,25.65
2018-03-16T04:25:03.114Z,25.69
2018-03-16T04:25:31.154Z,25.67
2018-03-16T04:25:59.273Z,25.73
2018-03-16T04:26:27.390Z,25.67
2018-03-16T04:26:55.536Z,25.65
2018-03-16T04:27:23.667Z,25.62
2018-03-16T04:27:51.711Z,25.62
2018-03-16T04:28:19.798Z,25.62
2018-03-16T04:28:47.968Z,25.61
2018-03-16T04:29:16.038Z,25.64
2018-03-16T04:29:44.581Z,25.58
2018-03-16T04:30:12.702Z,25.55
2018-03-16T04:30:40.852Z,25.58
2018-03-16T04:31:08.816Z,25.57
2018-03-16T04:31:36.940Z,25.55
2018-03-16T04:32:05.054Z,25.57
2018-03-16T04:32:33.073Z,25.52
2018-03-16T04:33:01.149Z,25.52
2018-03-16T04:33:29.209Z,25.5
2018-03-16T04:33:57.156Z,25.46
2018-03-16T04:34:25.289Z,25.43
2018-03-16T04:34:53.446Z,25.47
2018-03-16T04:35:21.566Z,25.43
2018-03-16T04:35:49.657Z,25.46
2018-03-16T04:36:17.796Z,25.46
2018-03-16T04:36:45.961Z,25.51
2018-03-16T04:37:14.036Z,25.46
2018-03-16T04:37:42.193Z,25.45
2018-03-16T04:38:10.353Z,25.46
2018-03-16T04:38:38.414Z,25.45
2018-03-16T04:39:06.564Z,25.47
2018-03-16T04:39:34.687Z,25.46
2018-03-16T04:40:40.506Z,25.51
2018-03-16T04:41:08.693Z,25.51
2018-03-16T04:41:36.706Z,25.43
2018-03-16T04:42:04.884Z,25.47
2018-03-16T04:42:32.929Z,25.43
2018-03-16T04:43:00.931Z,25.42
2018-03-16T04:43:29.191Z,25.38
2018-03-16T04:43:57.121Z,25.43
2018-03-16T04:44:25.175Z,25.45
2018-03-16T04:44:53.490Z,25.39
2018-03-16T04:45:21.633Z,25.43
2018-03-16T04:45:49.813Z,25.43
2018-03-16T04:46:17.936Z,25.42
2018-03-16T04:46:46.080Z,25.35
2018-03-16T04:47:14.206Z,25.36
2018-03-16T04:47:42.361Z,25.35
2018-03-16T04:48:10.518Z,25.3
2018-03-16T04:48:38.669Z,25.36
2018-03-16T04:49:06.794Z,25.33
2018-03-16T04:49:34.890Z,25.25
2018-03-16T04:50:03.034Z,25.23
2018-03-16T04:50:31.259Z,25.2
2018-03-16T04:50:59.398Z,25.28
2018-03-16T04:51:27.531Z,25.24
2018-03-16T04:51:55.695Z,25.24
2018-03-16T04:52:23.870Z,25.25
2018-03-16T04:52:52.007Z,25.17
2018-03-16T04:53:20.161Z,25.13
2018-03-16T04:53:48.318Z,25.21
2018-03-16T04:54:16.482Z,25.14
2018-03-16T04:54:44.603Z,25.18
2018-03-16T04:55:12.746Z,25.14
2018-03-16T04:55:40.913Z,25.15
2018-03-16T04:56:08.935Z,25.21
2018-03-16T04:56:37.087Z,25.09
2018-03-16T04:57:05.243Z,25.15
2018-03-16T04:57:33.379Z,25.15
2018-03-16T04:58:01.583Z,25.15
2018-03-16T04:58:29.727Z,25.14
2018-03-16T04:58:57.684Z,25.09
2018-03-16T04:59:25.798Z,25.06
2018-03-16T04:59:53.925Z,25.02
2018-03-16T05:00:22.157Z,25.14
2018-03-16T05:00:50.294Z,25.14
2018-03-16T05:01:18.629Z,25.08
2018-03-16T05:01:46.798Z,25.09
2018-03-16T05:02:14.919Z,25.03
2018-03-16T05:02:43.122Z,25.03
2018-03-16T05:03:11.279Z,25.09
2018-03-16T05:03:39.451Z,25.08
2018-03-16T05:04:07.588Z,25.03
2018-03-16T05:04:35.738Z,25.06
2018-03-16T05:05:03.846Z,25.08
2018-03-16T05:05:31.984Z,25.06
2018-03-16T05:06:00.152Z,25.03
2018-03-16T05:06:28.287Z,25.06
2018-03-16T05:06:56.434Z,25
2018-03-16T05:07:24.520Z,25.02
2018-03-16T05:07:52.687Z,25.05
2018-03-16T05:08:20.657Z,24.93
2018-03-16T05:08:48.707Z,24.96
2018-03-16T05:09:16.832Z,24.88
2018-03-16T05:09:44.963Z,24.84
2018-03-16T05:10:13.038Z,24.85
2018-03-16T05:10:41.070Z,24.84
2018-03-16T05:11:09.181Z,24.85
2018-03-16T05:11:37.299Z,24.9
2018-03-16T05:12:05.476Z,24.83
2018-03-16T05:12:33.691Z,24.93
2018-03-16T05:13:01.676Z,24.9
2018-03-16T05:13:29.813Z,24.87
2018-03-16T05:13:57.983Z,24.9
2018-03-16T05:14:26.088Z,24.9
2018-03-16T05:14:53.868Z,24.85
2018-03-16T05:15:22.022Z,24.84
2018-03-16T05:15:50.092Z,24.84
2018-03-16T05:16:18.260Z,24.78
2018-03-16T05:16:46.408Z,24.83
2018-03-16T05:17:14.595Z,24.77
2018-03-16T05:17:42.652Z,24.73
2018-03-16T05:18:10.789Z,24.77
2018-03-16T05:18:38.927Z,24.8
2018-03-16T05:19:44.758Z,24.77
2018-03-16T05:20:12.948Z,24.73
2018-03-16T05:20:41.060Z,24.76
2018-03-16T05:21:09.222Z,24.71
2018-03-16T05:21:37.366Z,24.73
2018-03-16T05:22:05.472Z,24.77
2018-03-16T05:22:33.582Z,24.67
2018-03-16T05:23:01.691Z,24.78
2018-03-16T05:23:29.845Z,24.71
2018-03-16T05:23:58.057Z,24.71
2018-03-16T05:24:26.203Z,24.76
2018-03-16T05:24:54.370Z,24.71
2018-03-16T05:25:22.401Z,24.71
2018-03-16T05:25:50.538Z,24.71
2018-03-16T05:26:18.549Z,24.71
2018-03-16T05:26:46.637Z,24.73
2018-03-16T05:27:14.797Z,24.76
2018-03-16T05:27:42.950Z,24.71
2018-03-16T05:28:11.079Z,24.8
2018-03-16T05:28:39.160Z,24.68
2018-03-16T05:29:07.301Z,24.65
2018-03-16T05:29:35.387Z,24.76
2018-03-16T05:30:03.443Z,24.76
2018-03-16T05:30:31.707Z,24.76
2018-03-16T05:30:59.845Z,24.69
2018-03-16T05:31:27.931Z,24.62
2018-03-16T05:31:56.063Z,24.65
2018-03-16T05:32:24.225Z,24.73
2018-03-16T05:32:52.385Z,24.76
2018-03-16T05:33:20.460Z,24.69
2018-03-16T05:33:48.582Z,24.77
2018-03-16T05:34:16.621Z,24.77
2018-03-16T05:34:44.702Z,24.76
2018-03-16T05:35:12.827Z,24.78
2018-03-16T05:35:40.993Z,24.78
2018-03-16T05:36:09.048Z,24.76
2018-03-16T05:36:37.090Z,24.77
2018-03-16T05:37:05.292Z,24.8
2018-03-16T05:37:33.438Z,24.84
2018-03-16T05:38:01.592Z,24.78
2018-03-16T05:38:29.705Z,24.83
2018-03-16T05:38:57.819Z,24.8
2018-03-16T05:39:25.767Z,24.85
2018-03-16T05:39:53.897Z,24.84
2018-03-16T05:40:22.087Z,24.8
2018-03-16T05:40:50.258Z,24.8
2018-03-16T05:41:18.378Z,24.88
2018-03-16T05:41:46.472Z,24.88
2018-03-16T05:42:14.608Z,24.81
2018-03-16T05:42:42.777Z,24.83
2018-03-16T05:43:10.914Z,24.8
2018-03-16T05:43:39.061Z,24.81
2018-03-16T05:44:07.172Z,24.76
2018-03-16T05:44:35.445Z,24.78
2018-03-16T05:45:03.593Z,24.76
2018-03-16T05:45:31.726Z,24.8
2018-03-16T05:45:59.886Z,24.71
2018-03-16T05:46:27.977Z,24.73
2018-03-16T05:46:56.144Z,24.83
2018-03-16T05:47:24.313Z,24.73
2018-03-16T05:47:52.450Z,24.8
2018-03-16T05:48:20.570Z,24.88
2018-03-16T05:48:48.702Z,24.81
2018-03-16T05:49:16.784Z,24.71
2018-03-16T05:49:44.909Z,24.8
2018-03-16T05:50:13.018Z,24.71
2018-03-16T05:50:41.241Z,24.68
2018-03-16T05:51:09.447Z,24.83
2018-03-16T05:51:37.608Z,24.77
2018-03-16T05:52:05.752Z,24.65
2018-03-16T05:52:33.887Z,24.62
2018-03-16T05:53:02.046Z,24.73
2018-03-16T05:53:30.151Z,24.8
2018-03-16T05:53:58.246Z,24.71
2018-03-16T05:54:26.392Z,24.67
2018-03-16T05:54:54.600Z,24.65
2018-03-16T05:55:22.734Z,24.77
2018-03-16T05:55:50.852Z,24.64
2018-03-16T05:56:19.010Z,24.62
2018-03-16T05:56:47.163Z,24.76
2018-03-16T05:57:15.315Z,24.62
2018-03-16T05:57:43.439Z,24.71
2018-03-16T05:58:49.266Z,24.76
2018-03-16T05:59:17.465Z,24.67
2018-03-16T05:59:45.484Z,24.65
2018-03-16T06:00:13.549Z,24.77
2018-03-16T06:00:41.742Z,24.76
2018-03-16T06:01:09.902Z,24.8
2018-03-16T06:01:38.098Z,24.76
2018-03-16T06:02:06.193Z,24.67
2018-03-16T06:02:34.360Z,24.64
2018-03-16T06:03:02.485Z,24.68
2018-03-16T06:03:30.619Z,24.69
2018-03-16T06:03:58.783Z,24.68
2018-03-16T06:04:26.910Z,24.69
2018-03-16T06:04:55.049Z,24.67
2018-03-16T06:05:23.156Z,24.71
2018-03-16T06:05:51.335Z,24.76
2018-03-16T06:06:19.493Z,24.71
2018-03-16T06:06:47.660Z,24.64
2018-03-16T06:07:15.801Z,24.71
2018-03-16T06:07:43.884Z,24.62
2018-03-16T06:08:12.018Z,24.62
2018-03-16T06:08:40.203Z,24.64
2018-03-16T06:09:08.343Z,24.6
2018-03-16T06:09:36.386Z,24.62
2018-03-16T06:10:04.356Z,24.61
2018-03-16T06:10:32.431Z,24.6